createdAt,value
2022-11-24T00:02:13.487Z,1.00
2022-11-24T00:04:42.830Z,1.03
2022-11-24T00:07:13.577Z,0.88
2022-11-24T00:09:42.927Z,0.80
2022-11-24T00:12:12.503Z,1.10
2022-11-24T00:14:41.784Z,0.80
2022-11-24T00:17:11.234Z,1.00
2022-11-24T00:19:40.590Z,1.20
2022-11-24T00:22:09.809Z,1.30
2022-11-24T00:24:40.528Z,1.30
2022-11-24T00:27:10.195Z,1.10
2022-11-24T00:29:39.455Z,1.37
2022-11-24T00:32:08.733Z,1.08
2022-11-24T00:34:38.032Z,1.25
2022-11-24T00:37:07.331Z,1.20
2022-11-24T00:39:36.647Z,1.40
2022-11-24T00:42:07.381Z,1.40
2022-11-24T00:44:36.669Z,1.33
2022-11-24T00:47:06.047Z,1.20
2022-11-24T00:49:36.524Z,1.20
2022-11-24T00:52:06.275Z,1.50
2022-11-24T00:54:35.671Z,1.90
2022-11-24T00:57:06.546Z,1.20
2022-11-24T00:59:35.798Z,1.10
2022-11-24T01:02:05.077Z,1.20
2022-11-24T01:04:35.678Z,1.08
2022-11-24T01:07:05.580Z,1.20
2022-11-24T01:09:34.938Z,1.50
2022-11-24T01:12:04.435Z,2.53
2022-11-24T01:14:35.578Z,1.30
2022-11-24T01:17:25.298Z,1.45
2022-11-24T01:19:54.615Z,1.27
2022-11-24T01:22:25.163Z,1.85
2022-11-24T01:24:54.438Z,1.50
2022-11-24T01:27:23.720Z,1.30
2022-11-24T01:29:54.380Z,1.65
2022-11-24T01:32:23.768Z,1.37
2022-11-24T01:34:53.156Z,1.20
2022-11-24T01:37:22.395Z,1.20
2022-11-24T01:39:51.702Z,1.50
2022-11-24T01:42:21.099Z,2.13
2022-11-24T01:44:53.394Z,1.33
2022-11-24T01:47:34.365Z,1.58
2022-11-24T01:50:06.029Z,1.92
2022-11-24T01:52:39.715Z,2.05
2022-11-24T01:55:14.318Z,2.65
2022-11-24T01:57:49.442Z,2.10
2022-11-24T02:00:19.579Z,1.75
2022-11-24T02:02:50.416Z,1.35
2022-11-24T02:05:28.276Z,2.00
2022-11-24T02:08:00.659Z,1.60
2022-11-24T02:10:31.106Z,1.43
2022-11-24T02:13:01.979Z,1.30
2022-11-24T02:15:31.501Z,1.58
2022-11-24T02:18:02.538Z,1.65
2022-11-24T02:20:32.034Z,1.55
2022-11-24T02:23:06.859Z,1.67
2022-11-24T02:25:46.327Z,1.50
2022-11-24T02:28:20.438Z,1.80
2022-11-24T02:30:51.152Z,1.70
2022-11-24T02:33:22.844Z,1.30
2022-11-24T02:35:52.338Z,1.80
2022-11-24T02:38:30.892Z,1.65
2022-11-24T02:41:01.895Z,1.52
2022-11-24T02:43:37.462Z,2.25
2022-11-24T02:46:07.040Z,1.67
2022-11-24T02:48:36.449Z,1.50
2022-11-24T02:51:06.161Z,2.00
2022-11-24T02:53:35.679Z,1.65
2022-11-24T02:56:05.192Z,1.67
2022-11-24T02:58:36.038Z,1.55
2022-11-24T03:01:05.592Z,1.80
2022-11-24T03:03:35.085Z,1.10
2022-11-24T03:06:04.453Z,1.60
2022-11-24T03:08:34.268Z,1.60
2022-11-24T03:11:03.767Z,1.35
2022-11-24T03:13:33.055Z,1.20
2022-11-24T03:16:03.718Z,1.40
2022-11-24T03:18:33.038Z,1.40
2022-11-24T03:21:02.383Z,1.58
2022-11-24T03:23:31.707Z,1.70
2022-11-24T03:26:09.198Z,2.27
2022-11-24T03:28:38.572Z,1.50
2022-11-24T03:31:10.182Z,1.88
2022-11-24T03:33:40.211Z,1.85
2022-11-24T03:36:10.491Z,2.05
2022-11-24T03:38:39.861Z,1.23
2022-11-24T03:41:09.229Z,1.85
2022-11-24T03:43:43.422Z,1.83
2022-11-24T03:46:15.030Z,2.00
2022-11-24T03:48:44.579Z,1.75
2022-11-24T03:51:13.869Z,2.10
2022-11-24T03:53:43.179Z,1.75
2022-11-24T03:56:12.520Z,1.77
2022-11-24T03:58:41.829Z,1.45
2022-11-24T04:01:11.125Z,1.35
2022-11-24T04:03:42.247Z,1.93
2022-11-24T04:06:12.157Z,1.77
2022-11-24T04:08:41.447Z,1.40
2022-11-24T04:11:30.901Z,1.40
2022-11-24T04:13:59.189Z,1.30
2022-11-24T04:16:28.781Z,1.87
2022-11-24T04:18:59.529Z,1.60
2022-11-24T04:21:28.827Z,1.50
2022-11-24T04:23:58.158Z,1.35
2022-11-24T04:26:27.830Z,1.58
2022-11-24T04:28:57.354Z,1.60
2022-11-24T04:31:26.897Z,1.20
2022-11-24T04:33:56.299Z,2.22
2022-11-24T04:36:27.010Z,1.50
2022-11-24T04:39:24.790Z,1.33
2022-11-24T04:41:45.717Z,1.90
2022-11-24T04:44:15.420Z,1.80
2022-11-24T04:46:44.791Z,1.55
2022-11-24T04:49:14.147Z,1.20
2022-11-24T04:51:45.186Z,1.33
2022-11-24T04:54:15.398Z,1.40
2022-11-24T04:56:45.380Z,1.40
2022-11-24T04:59:16.067Z,1.10
2022-11-24T05:01:46.550Z,1.50
2022-11-24T05:04:17.509Z,1.20
2022-11-24T05:06:48.696Z,1.47
2022-11-24T05:09:18.813Z,1.63
2022-11-24T05:11:48.166Z,1.80
2022-11-24T05:14:17.491Z,1.52
2022-11-24T05:16:49.580Z,1.60
2022-11-24T05:19:19.097Z,1.13
2022-11-24T05:21:49.730Z,1.70
2022-11-24T05:24:19.052Z,1.30
2022-11-24T05:26:48.451Z,1.30
2022-11-24T05:29:17.844Z,1.27
2022-11-24T05:31:47.324Z,1.50
2022-11-24T05:34:17.130Z,1.52
2022-11-24T05:36:56.456Z,1.20
2022-11-24T05:39:29.278Z,1.73
2022-11-24T05:41:58.568Z,1.58
2022-11-24T05:44:27.813Z,1.10
2022-11-24T05:46:57.460Z,1.60
2022-11-24T05:49:26.748Z,1.45
2022-11-24T05:51:56.042Z,1.05
2022-11-24T05:54:25.400Z,1.30
2022-11-24T05:56:57.120Z,0.93
2022-11-24T05:59:26.577Z,1.45
2022-11-24T06:01:56.006Z,1.30
2022-11-24T06:04:25.433Z,1.55
2022-11-24T06:06:54.793Z,1.63
2022-11-24T06:09:24.086Z,1.50
2022-11-24T06:11:53.328Z,1.55
2022-11-24T06:14:24.469Z,1.40
2022-11-24T06:16:53.826Z,1.65
2022-11-24T06:19:23.289Z,1.63
2022-11-24T06:21:52.775Z,1.13
2022-11-24T06:24:21.979Z,1.35
2022-11-24T06:26:51.285Z,1.33
2022-11-24T06:29:20.707Z,1.10
2022-11-24T06:31:51.939Z,1.67
2022-11-24T06:34:21.425Z,1.47
2022-11-24T06:36:50.714Z,1.42
2022-11-24T06:39:20.062Z,1.52
2022-11-24T06:41:52.529Z,1.63
2022-11-24T06:44:22.818Z,1.25
2022-11-24T06:46:53.696Z,1.20
2022-11-24T06:49:23.013Z,2.30
2022-11-24T06:51:52.406Z,1.33
2022-11-24T06:54:22.380Z,1.70
2022-11-24T06:56:51.725Z,1.35
2022-11-24T06:59:21.909Z,1.43
2022-11-24T07:02:11.980Z,0.98
2022-11-24T07:04:41.234Z,1.40
2022-11-24T07:07:10.816Z,1.20
2022-11-24T07:09:40.290Z,1.40
2022-11-24T07:12:18.288Z,1.83
2022-11-24T07:14:47.604Z,1.48
2022-11-24T07:17:18.281Z,1.52
2022-11-24T07:19:47.646Z,1.42
2022-11-24T07:22:16.931Z,1.55
2022-11-24T07:24:46.270Z,1.70
2022-11-24T07:27:15.609Z,1.38
2022-11-24T07:29:45.159Z,1.30
2022-11-24T07:32:14.486Z,1.33
2022-11-24T07:34:45.249Z,1.55
2022-11-24T07:37:14.580Z,1.37
2022-11-24T07:39:43.888Z,1.60
2022-11-24T07:42:13.306Z,2.15
2022-11-24T07:44:42.627Z,1.45
2022-11-24T07:47:11.970Z,1.58
2022-11-24T07:49:41.410Z,1.90
2022-11-24T07:52:12.257Z,1.70
2022-11-24T07:54:41.748Z,1.58
2022-11-24T07:57:11.007Z,1.73
2022-11-24T07:59:40.377Z,2.55
2022-11-24T08:02:11.569Z,3.00
2022-11-24T08:04:40.946Z,2.20
2022-11-24T08:07:11.879Z,2.20
2022-11-24T08:09:41.317Z,2.80
2022-11-24T08:12:10.821Z,3.00
2022-11-24T08:14:40.140Z,3.00
2022-11-24T08:17:09.635Z,2.40
2022-11-24T08:19:39.529Z,2.72
2022-11-24T08:22:09.036Z,3.38
2022-11-24T08:24:46.363Z,3.10
2022-11-24T08:27:16.523Z,2.37
2022-11-24T08:29:46.519Z,2.65
2022-11-24T08:32:22.074Z,2.97
2022-11-24T08:34:52.208Z,3.15
2022-11-24T08:37:27.879Z,3.15
2022-11-24T08:39:58.720Z,2.90
2022-11-24T08:42:28.100Z,1.90
2022-11-24T08:44:59.159Z,2.03
2022-11-24T08:47:28.740Z,2.03
2022-11-24T08:49:58.186Z,2.08
2022-11-24T08:52:27.555Z,1.70
2022-11-24T08:54:58.551Z,2.45
2022-11-24T08:57:27.847Z,1.95
2022-11-24T08:59:57.152Z,1.88
2022-11-24T09:02:26.540Z,1.75
2022-11-24T09:04:55.811Z,2.53
2022-11-24T09:07:25.404Z,1.73
2022-11-24T09:09:54.817Z,2.50
2022-11-24T09:12:25.601Z,2.00
2022-11-24T09:14:54.971Z,1.80
2022-11-24T09:17:24.361Z,1.73
2022-11-24T09:19:53.639Z,1.58
2022-11-24T09:22:23.000Z,2.30
2022-11-24T09:24:52.300Z,1.98
2022-11-24T09:27:21.647Z,1.77
2022-11-24T09:29:52.453Z,1.70
2022-11-24T09:32:21.781Z,2.28
2022-11-24T09:34:51.948Z,1.73
2022-11-24T09:37:21.268Z,1.23
2022-11-24T09:39:50.702Z,2.08
2022-11-24T09:42:34.882Z,1.77
2022-11-24T09:45:26.310Z,1.65
2022-11-24T09:48:10.083Z,1.85
2022-11-24T09:50:40.374Z,1.83
2022-11-24T09:53:17.468Z,1.80
2022-11-24T09:55:48.877Z,2.50
2022-11-24T09:58:33.807Z,1.63
2022-11-24T10:01:09.252Z,1.35
2022-11-24T10:03:43.603Z,1.50
2022-11-24T10:06:23.681Z,1.63
2022-11-24T10:09:14.523Z,1.53
2022-11-24T10:11:52.431Z,1.60
2022-11-24T10:15:02.530Z,2.20
2022-11-24T10:17:56.531Z,2.00
2022-11-24T10:20:35.521Z,1.67
2022-11-24T10:23:22.737Z,1.80
2022-11-24T10:25:58.222Z,1.50
2022-11-24T10:28:33.599Z,1.80
2022-11-24T10:31:20.043Z,1.65
2022-11-24T10:33:51.306Z,1.63
2022-11-24T10:36:50.890Z,1.70
2022-11-24T10:39:24.960Z,1.67
2022-11-24T10:42:00.561Z,2.33
2022-11-24T10:44:30.379Z,1.30
2022-11-24T10:46:59.813Z,2.63
2022-11-24T10:49:33.794Z,1.90
2022-11-24T10:52:09.349Z,2.08
2022-11-24T10:54:56.259Z,2.20
2022-11-24T10:57:37.431Z,1.85
2022-11-24T11:00:36.097Z,1.65
2022-11-24T11:03:18.389Z,1.90
2022-11-24T11:05:54.191Z,2.08
2022-11-24T11:08:26.795Z,2.20
2022-11-24T11:11:20.849Z,2.10
2022-11-24T11:14:01.649Z,1.98
2022-11-24T11:16:36.773Z,2.50
2022-11-24T11:19:26.123Z,2.33
2022-11-24T11:22:03.810Z,2.75
2022-11-24T11:24:33.899Z,2.30
2022-11-24T11:27:05.013Z,2.55
2022-11-24T11:35:14.809Z,2.60
2022-11-24T11:37:46.712Z,2.67
2022-11-24T11:40:19.071Z,2.80
2022-11-24T11:43:02.372Z,3.10
2022-11-24T11:45:37.039Z,3.00
2022-11-24T11:48:28.311Z,2.92
2022-11-24T11:51:22.783Z,3.10
2022-11-24T11:54:04.840Z,2.80
2022-11-24T11:56:40.475Z,2.87
2022-11-24T11:59:31.891Z,2.63
2022-11-24T12:02:26.256Z,2.70
2022-11-24T12:05:00.640Z,2.90
2022-11-24T12:07:53.631Z,2.65
2022-11-24T12:10:32.939Z,2.70
2022-11-24T12:13:24.922Z,2.65
2022-11-24T12:15:57.673Z,2.40
2022-11-24T12:18:57.280Z,2.58
2022-11-24T12:21:33.942Z,2.65
2022-11-24T12:24:12.122Z,2.50
2022-11-24T12:26:46.623Z,2.80
2022-11-24T12:29:35.383Z,3.05
2022-11-24T12:32:12.679Z,2.97
2022-11-24T12:34:52.605Z,3.08
2022-11-24T12:37:43.737Z,3.17
2022-11-24T12:40:19.115Z,3.00
2022-11-24T12:43:01.297Z,3.78
2022-11-24T12:45:40.206Z,3.65
2022-11-24T12:48:20.266Z,3.50
2022-11-24T12:50:53.054Z,3.03
2022-11-24T12:53:26.792Z,3.75
2022-11-24T12:56:06.422Z,4.03
2022-11-24T12:58:45.915Z,3.30
2022-11-24T13:01:24.599Z,3.58
2022-11-24T13:04:07.722Z,3.50
2022-11-24T13:06:49.466Z,3.10
2022-11-24T13:09:19.355Z,3.45
2022-11-24T13:11:50.453Z,3.80
2022-11-24T13:14:23.909Z,3.92
2022-11-24T13:19:45.390Z,3.67
2022-11-24T13:22:24.720Z,4.43
2022-11-24T13:25:16.180Z,4.63
2022-11-24T13:27:48.449Z,4.72
2022-11-24T13:30:59.621Z,4.93
2022-11-24T13:33:35.580Z,4.07
2022-11-24T13:36:35.858Z,4.63
2022-11-24T13:39:19.293Z,4.20
2022-11-24T13:42:41.008Z,4.53
2022-11-24T13:45:03.311Z,4.57
2022-11-24T13:47:42.167Z,3.92
2022-11-24T13:50:24.377Z,4.40
2022-11-24T13:53:01.691Z,4.00
2022-11-24T13:55:38.977Z,4.40
2022-11-24T13:58:31.075Z,4.50
2022-11-24T14:01:08.297Z,4.45
2022-11-24T14:03:47.549Z,4.57
2022-11-24T14:06:35.738Z,4.10
2022-11-24T14:09:22.959Z,4.38
2022-11-24T14:12:07.764Z,4.67
2022-11-24T14:14:37.458Z,4.13
2022-11-24T14:17:18.429Z,3.78
2022-11-24T14:19:49.291Z,4.18
2022-11-24T14:22:23.171Z,3.90
2022-11-24T14:25:03.472Z,3.73
2022-11-24T14:27:35.675Z,4.07
2022-11-24T14:30:07.129Z,3.58
2022-11-24T14:32:37.958Z,3.55
2022-11-24T14:35:25.672Z,4.15
2022-11-24T14:37:57.041Z,4.17
2022-11-24T14:40:44.177Z,3.95
2022-11-24T14:43:21.214Z,4.22
2022-11-24T14:45:52.587Z,3.58
2022-11-24T14:48:27.118Z,3.78
2022-11-24T14:51:07.652Z,3.90
2022-11-24T14:53:42.278Z,3.40
2022-11-24T14:56:24.026Z,3.90
2022-11-24T14:58:53.582Z,3.53
2022-11-24T15:01:32.929Z,3.28
2022-11-24T15:04:32.826Z,2.90
2022-11-24T15:07:17.955Z,3.28
2022-11-24T15:09:53.918Z,3.30
2022-11-24T15:12:29.270Z,3.70
2022-11-24T15:15:01.718Z,3.58
2022-11-24T15:17:32.806Z,2.97
2022-11-24T15:20:05.445Z,3.30
2022-11-24T15:22:40.738Z,3.15
2022-11-24T15:25:33.784Z,2.90
2022-11-24T15:28:03.248Z,3.42
2022-11-24T15:30:35.475Z,3.10
2022-11-24T15:33:12.361Z,3.30
2022-11-24T15:35:41.799Z,3.38
2022-11-24T15:38:11.498Z,3.10
2022-11-24T15:40:45.201Z,3.50
2022-11-24T15:43:22.958Z,4.00
2022-11-24T15:45:52.380Z,4.40
2022-11-24T15:48:22.168Z,4.70
2022-11-24T15:50:53.105Z,4.60
2022-11-24T15:53:25.939Z,4.65
2022-11-24T15:55:57.670Z,4.17
2022-11-24T15:58:27.386Z,5.85
2022-11-24T16:00:56.830Z,5.07
2022-11-24T16:06:24.193Z,4.80
2022-11-24T16:08:54.683Z,4.97
2022-11-24T16:11:25.711Z,4.65
2022-11-24T16:13:55.428Z,5.00
2022-11-24T16:16:26.062Z,4.80
2022-11-24T16:18:55.511Z,5.05
2022-11-24T16:21:24.989Z,5.70
2022-11-24T16:23:55.200Z,4.63
2022-11-24T16:26:26.080Z,4.50
2022-11-24T16:28:55.560Z,5.47
2022-11-24T16:31:24.984Z,4.97
2022-11-24T16:33:54.335Z,4.80
2022-11-24T16:36:23.803Z,4.97
2022-11-24T16:38:53.190Z,5.32
2022-11-24T16:41:22.769Z,4.57
2022-11-24T16:43:54.093Z,5.40
2022-11-24T16:46:24.816Z,5.03
2022-11-24T16:48:56.329Z,5.57
2022-11-24T16:51:28.781Z,6.07
2022-11-24T16:54:03.923Z,6.18
2022-11-24T16:56:33.383Z,6.32
2022-11-24T16:59:04.522Z,6.60
2022-11-24T17:01:34.137Z,6.35
2022-11-24T17:04:07.028Z,4.85
2022-11-24T17:06:39.028Z,5.13
2022-11-24T17:09:08.484Z,5.05
2022-11-24T17:11:47.043Z,6.67
2022-11-24T17:14:17.767Z,7.07
2022-11-24T17:16:47.190Z,6.95
2022-11-24T17:19:16.708Z,7.70
2022-11-24T17:21:46.676Z,7.65
2022-11-24T17:24:18.316Z,7.53
2022-11-24T17:26:49.270Z,7.43
2022-11-24T17:29:30.231Z,8.82
2022-11-24T17:31:59.686Z,8.30
2022-11-24T17:34:29.197Z,8.43
2022-11-24T17:36:58.685Z,9.10
2022-11-24T17:39:28.182Z,9.82
2022-11-24T17:41:57.511Z,9.80
2022-11-24T17:44:28.351Z,9.00
2022-11-24T17:46:59.089Z,9.10
2022-11-24T17:49:28.490Z,6.93
2022-11-24T17:51:57.920Z,6.75
2022-11-24T17:57:16.834Z,5.78
2022-11-24T17:59:47.696Z,6.10
2022-11-24T18:02:17.211Z,5.97
2022-11-24T18:04:46.652Z,6.90
2022-11-24T18:07:16.111Z,6.43
2022-11-24T18:09:45.637Z,5.80
2022-11-24T18:12:15.292Z,6.55
2022-11-24T18:14:44.988Z,5.20
2022-11-24T18:17:15.931Z,6.50
2022-11-24T18:19:45.370Z,6.22
2022-11-24T18:22:14.913Z,5.60
2022-11-24T18:24:44.664Z,5.60
2022-11-24T18:27:14.088Z,6.10
2022-11-24T18:29:43.568Z,5.35
2022-11-24T18:32:13.033Z,5.85
2022-11-24T18:34:43.927Z,5.35
2022-11-24T18:37:15.120Z,5.35
2022-11-24T18:39:44.970Z,4.97
2022-11-24T18:42:14.263Z,5.43
2022-11-24T18:44:43.761Z,5.13
2022-11-24T18:47:13.432Z,6.35
2022-11-24T18:49:44.432Z,5.93
2022-11-24T18:52:14.251Z,5.90
2022-11-24T18:54:44.989Z,6.05
2022-11-24T18:57:14.797Z,6.80
2022-11-24T18:59:44.219Z,6.35
2022-11-24T19:02:13.700Z,6.88
2022-11-24T19:04:44.597Z,6.93
2022-11-24T19:07:17.175Z,6.57
2022-11-24T19:09:46.657Z,6.68
2022-11-24T19:12:16.076Z,6.60
2022-11-24T19:14:45.556Z,5.78
2022-11-24T19:17:15.341Z,6.13
2022-11-24T19:19:46.829Z,6.50
2022-11-24T19:22:16.972Z,5.35
2022-11-24T19:24:46.868Z,5.88
2022-11-24T19:27:17.066Z,5.78
2022-11-24T19:29:47.227Z,6.07
2022-11-24T19:32:17.229Z,5.43
2022-11-24T19:34:48.130Z,5.57
2022-11-24T19:37:17.940Z,5.13
2022-11-24T19:39:47.989Z,5.75
2022-11-24T19:42:17.951Z,5.13
2022-11-24T19:44:52.970Z,6.32
2022-11-24T19:47:25.679Z,6.13
2022-11-24T19:49:56.933Z,5.50
2022-11-24T19:52:26.396Z,5.43
2022-11-24T19:54:55.920Z,4.73
2022-11-24T19:57:25.451Z,5.25
2022-11-24T19:59:55.221Z,5.25
2022-11-24T20:02:24.984Z,5.85
2022-11-24T20:04:55.969Z,5.03
2022-11-24T20:07:25.372Z,5.57
2022-11-24T20:09:54.834Z,5.25
2022-11-24T20:12:24.204Z,5.63
2022-11-24T20:14:53.546Z,5.65
2022-11-24T20:17:23.138Z,5.82
2022-11-24T20:19:52.459Z,5.70
2022-11-24T20:22:23.651Z,5.25
2022-11-24T20:24:53.079Z,5.10
2022-11-24T20:27:22.410Z,4.95
2022-11-24T20:29:51.808Z,5.22
2022-11-24T20:32:21.579Z,4.70
2022-11-24T20:34:50.926Z,5.03
2022-11-24T20:37:20.609Z,4.68
2022-11-24T20:39:52.251Z,5.50
2022-11-24T20:42:21.790Z,5.35
2022-11-24T20:44:53.022Z,6.00
2022-11-24T20:47:23.018Z,6.22
2022-11-24T20:49:52.495Z,5.68
2022-11-24T20:52:21.826Z,5.30
2022-11-24T20:54:52.559Z,5.35
2022-11-24T20:57:22.680Z,5.43
2022-11-24T20:59:52.601Z,6.07
2022-11-24T21:02:22.011Z,5.72
2022-11-24T21:04:51.827Z,5.28
2022-11-24T21:07:21.223Z,5.13
2022-11-24T21:09:50.622Z,5.10
2022-11-24T21:12:21.455Z,5.65
2022-11-24T21:14:50.868Z,5.72
2022-11-24T21:17:20.217Z,5.53
2022-11-24T21:19:49.547Z,5.30
2022-11-24T21:22:18.830Z,5.57
2022-11-24T21:24:48.270Z,4.80
2022-11-24T21:27:17.579Z,5.18
2022-11-24T21:29:48.266Z,4.88
2022-11-24T21:32:17.670Z,5.57
2022-11-24T21:34:47.440Z,4.37
2022-11-24T21:37:16.758Z,5.28
2022-11-24T21:39:46.849Z,5.90
2022-11-24T21:42:16.194Z,4.80
2022-11-24T21:44:45.578Z,4.85
2022-11-24T21:47:16.588Z,4.33
2022-11-24T21:49:46.074Z,4.20
2022-11-24T21:52:15.660Z,4.50
2022-11-24T21:54:45.011Z,4.82
2022-11-24T21:57:14.369Z,4.80
2022-11-24T21:59:43.736Z,4.10
2022-11-24T22:02:13.818Z,3.88
2022-11-24T22:04:44.684Z,4.25
2022-11-24T22:07:14.169Z,4.18
2022-11-24T22:09:43.642Z,3.40
2022-11-24T22:12:12.967Z,3.50
2022-11-24T22:14:42.464Z,4.25
2022-11-24T22:17:13.564Z,3.72
2022-11-24T22:19:44.621Z,3.78
2022-11-24T22:22:13.992Z,4.07
2022-11-24T22:24:43.318Z,3.80
2022-11-24T22:27:12.588Z,4.20
2022-11-24T22:29:41.895Z,3.47
2022-11-24T22:32:11.254Z,3.25
2022-11-24T22:34:40.717Z,3.35
2022-11-24T22:37:11.541Z,3.47
2022-11-24T22:39:40.949Z,3.95
2022-11-24T22:42:10.279Z,3.58
2022-11-24T22:44:39.611Z,3.20
2022-11-24T22:47:09.044Z,3.35
2022-11-24T22:49:38.583Z,3.47
2022-11-24T22:52:08.047Z,3.40
2022-11-24T22:54:38.920Z,2.95
2022-11-24T22:57:08.284Z,3.35
2022-11-24T22:59:37.607Z,3.03
2022-11-24T23:02:06.931Z,2.80
2022-11-24T23:04:36.436Z,3.00
2022-11-24T23:07:06.818Z,3.20
2022-11-24T23:09:36.231Z,3.22
2022-11-24T23:12:07.472Z,3.20
2022-11-24T23:14:36.967Z,3.03
2022-11-24T23:17:06.750Z,2.80
2022-11-24T23:19:36.063Z,3.25
2022-11-24T23:22:05.376Z,2.75
2022-11-24T23:24:38.296Z,2.80
2022-11-24T23:27:09.028Z,3.73
2022-11-24T23:29:38.459Z,3.45
2022-11-24T23:32:08.036Z,2.67
2022-11-24T23:34:37.452Z,2.85
2022-11-24T23:37:06.853Z,3.72
2022-11-24T23:39:36.270Z,2.40
2022-11-24T23:42:05.770Z,2.45
2022-11-24T23:44:36.758Z,2.90
2022-11-24T23:47:06.799Z,3.05
2022-11-24T23:49:36.109Z,2.72
2022-11-24T23:52:05.520Z,2.80
2022-11-24T23:54:35.000Z,2.83
2022-11-24T23:57:04.540Z,2.67
2022-11-24T23:59:33.808Z,2.28
